Time;durP1;ratioP1;P1;durP2;ratioP2;P2;SDS_P1;SDS_P2;PMS_P1;PMS_P2;Temp;Humidity;BMP_temperature;BMP_pressure;BME280_temperature;BME280_humidity;BME280_pressure;Samples;Min_cycle;Max_cycle;Signal;HPM_P1;HPM_P2
2021/08/16 00:01:52;;;;;;;15.15;4.50;;;17.50;92.70;;;;;;4951370;28;20047;-48
2021/08/16 00:04:18;;;;;;;12.88;3.90;;;17.50;92.70;;;;;;4972977;28;20093;-51
2021/08/16 00:06:44;;;;;;;16.48;4.65;;;17.50;92.60;;;;;;4967850;28;20038;-52
2021/08/16 00:09:10;;;;;;;16.23;4.35;;;17.50;92.50;;;;;;4928226;29;20118;-48
2021/08/16 00:11:37;;;;;;;19.75;4.75;;;17.50;92.60;;;;;;4966139;28;20484;-48
2021/08/16 00:14:03;;;;;;;20.50;4.45;;;17.50;92.60;;;;;;4964442;28;20042;-49
2021/08/16 00:16:33;;;;;;;19.35;4.90;;;17.50;92.50;;;;;;4966231;28;20391;-50
2021/08/16 00:18:59;;;;;;;19.27;5.00;;;17.50;92.40;;;;;;4971338;28;20404;-54
2021/08/16 00:21:25;;;;;;;17.35;4.68;;;17.50;92.40;;;;;;4973740;28;20043;-50
2021/08/16 00:23:51;;;;;;;21.23;5.38;;;17.60;92.30;;;;;;4968561;28;20491;-50
2021/08/16 00:26:17;;;;;;;21.00;5.15;;;17.60;92.20;;;;;;4974388;28;20031;-51
2021/08/16 00:28:43;;;;;;;23.30;5.30;;;17.50;92.20;;;;;;4932134;28;20046;-50
2021/08/16 00:31:09;;;;;;;17.30;4.97;;;17.50;92.20;;;;;;4974645;28;20134;-54
2021/08/16 00:33:34;;;;;;;16.10;4.32;;;17.50;92.20;;;;;;4976679;28;20070;-54
2021/08/16 00:36:03;;;;;;;21.73;5.30;;;17.50;92.40;;;;;;4966692;28;20244;-52
2021/08/16 00:38:29;;;;;;;17.80;4.72;;;17.50;92.30;;;;;;4943746;28;20114;-56
2021/08/16 00:40:55;;;;;;;19.35;4.45;;;17.50;92.20;;;;;;4969059;28;20035;-54
2021/08/16 00:43:21;;;;;;;21.75;4.78;;;17.50;92.20;;;;;;4932842;29;20035;-52
2021/08/16 00:45:47;;;;;;;16.83;4.50;;;17.50;92.10;;;;;;4969812;28;20035;-51
2021/08/16 00:48:14;;;;;;;19.67;4.97;;;17.50;92.20;;;;;;4974908;28;20087;-48
2021/08/16 00:50:41;;;;;;;20.73;4.88;;;17.50;92.10;;;;;;4957781;28;20042;-49
2021/08/16 00:53:08;;;;;;;21.25;5.07;;;17.50;92.10;;;;;;4951474;28;20046;-53
2021/08/16 00:55:35;;;;;;;21.13;5.45;;;17.40;92.00;;;;;;4937331;28;20078;-55
2021/08/16 00:58:01;;;;;;;17.05;5.20;;;17.50;92.00;;;;;;4972022;28;20059;-49
2021/08/16 01:00:28;;;;;;;20.30;5.03;;;17.40;91.90;;;;;;4971493;28;20041;-51
2021/08/16 01:02:54;;;;;;;19.98;4.85;;;17.40;92.00;;;;;;4955702;28;20049;-52
2021/08/16 01:05:19;;;;;;;19.90;5.50;;;17.40;92.00;;;;;;4975177;28;20042;-53
2021/08/16 01:07:47;;;;;;;20.45;5.00;;;17.40;92.00;;;;;;4971393;28;20038;-50
2021/08/16 01:10:18;;;;;;;26.48;5.38;;;17.40;92.00;;;;;;4972877;28;20043;-53
2021/08/16 01:12:44;;;;;;;19.88;4.75;;;17.40;92.00;;;;;;4976028;28;20043;-48
2021/08/16 01:15:14;;;;;;;21.13;5.15;;;17.40;92.10;;;;;;4941733;28;20043;-50
2021/08/16 01:17:41;;;;;;;25.50;5.40;;;17.40;92.10;;;;;;4971984;28;20039;-52
2021/08/16 01:20:10;;;;;;;25.65;5.05;;;17.30;92.10;;;;;;4940546;29;20046;-54
2021/08/16 01:22:36;;;;;;;20.67;4.85;;;17.30;92.20;;;;;;4968728;28;20057;-53
2021/08/16 01:25:06;;;;;;;28.83;5.78;;;17.30;92.20;;;;;;4968138;28;20130;-52
2021/08/16 01:27:31;;;;;;;22.60;5.10;;;17.30;92.20;;;;;;4967571;28;20074;-51
2021/08/16 01:29:59;;;;;;;26.38;5.40;;;17.30;92.30;;;;;;4969708;28;20047;-52
2021/08/16 01:32:25;;;;;;;22.25;4.65;;;17.30;92.30;;;;;;4967476;28;20070;-49
2021/08/16 01:34:51;;;;;;;21.15;5.22;;;17.30;92.30;;;;;;4964159;28;20031;-48
2021/08/16 01:37:18;;;;;;;26.20;5.93;;;17.30;92.40;;;;;;4966039;28;20557;-49
2021/08/16 01:39:44;;;;;;;20.38;5.32;;;17.30;92.50;;;;;;4967991;28;20047;-51
2021/08/16 01:42:10;;;;;;;21.52;5.55;;;17.30;92.50;;;;;;4971393;28;20082;-48
2021/08/16 01:44:35;;;;;;;20.73;6.05;;;17.30;92.60;;;;;;4975952;28;20042;-47
2021/08/16 01:47:01;;;;;;;24.80;5.72;;;17.30;92.70;;;;;;4965051;28;20039;-48
2021/08/16 01:49:27;;;;;;;24.58;6.13;;;17.30;92.60;;;;;;4967294;28;20070;-51
2021/08/16 01:51:53;;;;;;;26.02;5.53;;;17.30;92.60;;;;;;4961499;28;20057;-52
2021/08/16 01:54:19;;;;;;;23.42;6.05;;;17.30;92.60;;;;;;4956828;28;20031;-48
2021/08/16 01:56:45;;;;;;;24.55;5.28;;;17.20;92.60;;;;;;4966733;28;20043;-48
2021/08/16 01:59:12;;;;;;;28.23;6.05;;;17.30;92.70;;;;;;4966159;28;20420;-49
2021/08/16 02:01:38;;;;;;;26.20;5.63;;;17.30;92.80;;;;;;4960267;28;20458;-48
2021/08/16 02:04:04;;;;;;;27.02;5.88;;;17.30;92.70;;;;;;4938294;29;20053;-48
2021/08/16 02:06:30;;;;;;;29.45;6.65;;;17.30;92.80;;;;;;4965769;28;20043;-52
2021/08/16 02:08:56;;;;;;;28.30;6.07;;;17.30;92.90;;;;;;4953648;28;20377;-47
2021/08/16 02:11:23;;;;;;;26.17;5.43;;;17.30;92.90;;;;;;4965556;28;20499;-48
2021/08/16 02:13:48;;;;;;;27.35;7.22;;;17.30;93.00;;;;;;4972718;28;20046;-53
2021/08/16 02:16:14;;;;;;;24.30;6.07;;;17.30;93.00;;;;;;4974142;28;20042;-51
2021/08/16 02:18:41;;;;;;;26.35;6.28;;;17.30;93.00;;;;;;4968051;28;20096;-50
2021/08/16 02:21:07;;;;;;;25.20;6.30;;;17.30;93.00;;;;;;4978705;28;20105;-51
2021/08/16 02:23:36;;;;;;;24.38;5.68;;;17.30;93.00;;;;;;4976245;28;20042;-52
2021/08/16 02:26:02;;;;;;;22.83;6.15;;;17.30;93.00;;;;;;4953825;29;20455;-49
2021/08/16 02:28:28;;;;;;;24.05;5.90;;;17.30;93.10;;;;;;4961935;28;20093;-53
2021/08/16 02:30:54;;;;;;;22.75;6.28;;;17.20;93.10;;;;;;4949482;28;20388;-52
2021/08/16 02:33:19;;;;;;;26.58;5.70;;;17.30;93.10;;;;;;4971993;28;20130;-53
2021/08/16 02:35:45;;;;;;;26.27;6.43;;;17.20;93.20;;;;;;4969759;28;20082;-52
2021/08/16 02:38:12;;;;;;;22.60;5.38;;;17.20;93.20;;;;;;4971972;28;20051;-51
2021/08/16 02:40:39;;;;;;;23.40;6.53;;;17.20;93.20;;;;;;4973018;28;20093;-52
2021/08/16 02:43:05;;;;;;;25.08;6.00;;;17.20;93.20;;;;;;4967118;28;20095;-52
2021/08/16 02:45:32;;;;;;;23.83;5.32;;;17.20;93.30;;;;;;4942432;29;20043;-51
2021/08/16 02:47:58;;;;;;;26.90;5.53;;;17.20;93.30;;;;;;4952432;28;20488;-52
2021/08/16 02:50:24;;;;;;;23.27;5.70;;;17.20;93.40;;;;;;4960679;28;20122;-52
2021/08/16 02:52:51;;;;;;;25.73;6.70;;;17.20;93.30;;;;;;4974214;28;20105;-54
2021/08/16 02:55:17;;;;;;;18.65;5.60;;;17.20;93.40;;;;;;4950616;28;20051;-52
2021/08/16 02:57:43;;;;;;;25.83;5.70;;;17.20;93.50;;;;;;4958067;28;20063;-54
2021/08/16 03:00:10;;;;;;;21.23;5.85;;;17.20;93.50;;;;;;4943276;28;20102;-51
2021/08/16 03:02:37;;;;;;;29.90;6.07;;;17.20;93.60;;;;;;4966208;28;20113;-50
2021/08/16 03:05:08;;;;;;;29.13;6.57;;;17.20;93.60;;;;;;4954585;28;20046;-53
2021/08/16 03:07:34;;;;;;;26.23;5.95;;;17.20;93.60;;;;;;4963432;28;20039;-53
2021/08/16 03:10:00;;;;;;;22.73;5.70;;;17.20;93.70;;;;;;4986326;28;20038;-52
2021/08/16 03:12:26;;;;;;;24.42;6.68;;;17.20;93.70;;;;;;4979671;28;20392;-54
2021/08/16 03:14:52;;;;;;;25.88;6.88;;;17.20;93.80;;;;;;4955094;29;20030;-51
2021/08/16 03:17:17;;;;;;;27.85;6.28;;;17.20;93.80;;;;;;4970367;28;20051;-51
2021/08/16 03:19:43;;;;;;;23.02;6.15;;;17.20;93.90;;;;;;4978687;28;20050;-53
2021/08/16 03:22:09;;;;;;;26.58;6.38;;;17.20;93.90;;;;;;4942206;28;20050;-51
2021/08/16 03:24:35;;;;;;;29.15;7.00;;;17.20;93.90;;;;;;4972135;28;20031;-52
2021/08/16 03:27:01;;;;;;;24.92;5.85;;;17.20;94.00;;;;;;4964837;28;20537;-51
2021/08/16 03:29:28;;;;;;;23.42;6.20;;;17.20;94.00;;;;;;4962029;28;20039;-51
2021/08/16 03:32:00;;;;;;;24.75;6.30;;;17.20;94.00;;;;;;4944496;28;20047;-54
2021/08/16 03:34:27;;;;;;;24.17;6.32;;;17.20;94.10;;;;;;4960289;28;20036;-53
2021/08/16 03:36:53;;;;;;;26.85;6.60;;;17.20;94.10;;;;;;4961934;28;20097;-53
2021/08/16 03:39:19;;;;;;;21.50;6.32;;;17.20;94.10;;;;;;4942719;28;20718;-50
2021/08/16 03:41:45;;;;;;;29.60;6.32;;;17.20;94.10;;;;;;4963958;28;20047;-52
2021/08/16 03:44:12;;;;;;;29.08;6.40;;;17.20;94.10;;;;;;4933258;28;20066;-54
2021/08/16 03:46:37;;;;;;;30.15;6.05;;;17.20;94.20;;;;;;4973750;28;20081;-52
2021/08/16 03:49:03;;;;;;;25.40;6.53;;;17.20;94.10;;;;;;4963994;28;20043;-53
2021/08/16 03:51:31;;;;;;;29.92;6.60;;;17.20;94.20;;;;;;4956369;28;20046;-51
2021/08/16 03:53:58;;;;;;;23.42;6.75;;;17.20;94.20;;;;;;4972176;28;20054;-51
2021/08/16 03:56:24;;;;;;;29.30;6.95;;;17.20;94.20;;;;;;4937914;28;20539;-53
2021/08/16 03:58:50;;;;;;;21.60;5.97;;;17.20;94.20;;;;;;4961860;28;20561;-51
2021/08/16 04:01:17;;;;;;;24.33;6.40;;;17.20;94.20;;;;;;4976311;28;20039;-51
2021/08/16 04:03:44;;;;;;;23.63;6.82;;;17.20;94.20;;;;;;4970774;28;20043;-51
2021/08/16 04:06:10;;;;;;;25.23;6.00;;;17.20;94.30;;;;;;4985439;28;20034;-53
2021/08/16 04:08:39;;;;;;;33.42;6.40;;;17.20;94.30;;;;;;4982000;28;20061;-54
2021/08/16 04:11:06;;;;;;;30.77;6.70;;;17.10;94.30;;;;;;4974810;28;20587;-50
2021/08/16 04:13:33;;;;;;;21.23;6.15;;;17.10;94.40;;;;;;4956053;28;20054;-51
2021/08/16 04:15:59;;;;;;;29.95;7.30;;;17.10;94.40;;;;;;4942677;28;20046;-51
2021/08/16 04:18:25;;;;;;;23.27;6.05;;;17.10;94.40;;;;;;4948035;28;20043;-50
2021/08/16 04:20:51;;;;;;;22.05;6.40;;;17.10;94.40;;;;;;4986720;28;20097;-49
2021/08/16 04:23:17;;;;;;;21.88;5.88;;;17.10;94.50;;;;;;4973366;28;20495;-54
2021/08/16 04:25:43;;;;;;;23.95;5.45;;;17.10;94.50;;;;;;4957966;28;20039;-52
2021/08/16 04:28:09;;;;;;;24.77;6.15;;;17.10;94.50;;;;;;4957024;28;20047;-52
2021/08/16 04:30:34;;;;;;;23.30;5.88;;;17.10;94.50;;;;;;4967567;28;20462;-52
2021/08/16 04:33:01;;;;;;;26.63;6.30;;;17.10;94.50;;;;;;4955008;28;20051;-52
2021/08/16 04:35:28;;;;;;;27.73;5.72;;;17.10;94.60;;;;;;4941214;28;20051;-51
2021/08/16 04:37:53;;;;;;;24.15;5.88;;;17.10;94.50;;;;;;4955344;28;20400;-55
2021/08/16 04:40:19;;;;;;;24.10;5.95;;;17.10;94.50;;;;;;4955247;28;20082;-51
2021/08/16 04:42:45;;;;;;;22.65;5.45;;;17.00;94.50;;;;;;4965266;28;20030;-51
2021/08/16 04:45:12;;;;;;;26.35;6.30;;;17.10;94.60;;;;;;4962604;28;20043;-55
2021/08/16 04:47:43;;;;;;;25.83;5.40;;;17.10;94.60;;;;;;4982273;28;20100;-53
2021/08/16 04:50:09;;;;;;;23.92;6.10;;;17.00;94.60;;;;;;4975339;28;20043;-53
2021/08/16 04:52:35;;;;;;;20.30;5.70;;;17.00;94.60;;;;;;4975307;28;20582;-54
2021/08/16 04:55:01;;;;;;;22.27;6.30;;;17.00;94.60;;;;;;4964296;28;20035;-54
2021/08/16 04:57:38;;;;;;;23.17;5.68;;;17.10;94.70;;;;;;4975817;28;20043;-52
2021/08/16 05:00:07;;;;;;;14.77;4.60;;;17.00;94.70;;;;;;4962209;28;20740;-53
2021/08/16 05:02:37;;;;;;;22.63;5.40;;;17.10;94.70;;;;;;4954370;28;20287;-55
2021/08/16 05:05:11;;;;;;;25.90;6.18;;;17.10;94.70;;;;;;4981274;28;20078;-53
2021/08/16 05:07:45;;;;;;;17.88;5.35;;;17.10;94.70;;;;;;4964394;28;20071;-49
2021/08/16 05:10:11;;;;;;;21.52;5.40;;;17.10;94.70;;;;;;4930443;28;20061;-52
2021/08/16 05:12:38;;;;;;;21.33;4.80;;;17.10;94.70;;;;;;4982612;28;20061;-50
2021/08/16 05:15:04;;;;;;;22.08;5.35;;;17.10;94.60;;;;;;4969070;28;20039;-54
2021/08/16 05:17:32;;;;;;;17.77;4.93;;;17.20;94.70;;;;;;4987823;28;20066;-49
2021/08/16 05:19:59;;;;;;;17.83;5.40;;;17.20;94.60;;;;;;4954073;28;20050;-51
2021/08/16 05:22:27;;;;;;;19.05;4.72;;;17.20;94.60;;;;;;4973651;28;20545;-49
2021/08/16 05:24:52;;;;;;;17.55;5.00;;;17.20;94.60;;;;;;4973534;28;20051;-49
2021/08/16 05:27:40;;;;;;;16.83;5.03;;;17.20;94.60;;;;;;4948121;28;20061;-51
2021/08/16 05:30:07;;;;;;;18.90;5.32;;;17.20;94.60;;;;;;4938961;28;20409;-50
2021/08/16 05:32:36;;;;;;;17.00;4.88;;;17.20;94.50;;;;;;4953743;28;20039;-48
2021/08/16 05:35:02;;;;;;;20.90;5.03;;;17.20;94.60;;;;;;4955114;28;20480;-48
2021/08/16 05:37:28;;;;;;;18.25;5.82;;;17.20;94.60;;;;;;4968896;28;20093;-54
2021/08/16 05:39:53;;;;;;;19.75;5.50;;;17.20;94.70;;;;;;4971936;28;20105;-53
2021/08/16 05:42:19;;;;;;;19.60;5.82;;;17.10;94.80;;;;;;4959154;28;20047;-48
2021/08/16 05:44:46;;;;;;;23.73;6.32;;;17.10;95.00;;;;;;4968545;28;20093;-48
2021/08/16 05:47:12;;;;;;;21.70;6.22;;;17.00;95.10;;;;;;4974152;28;20050;-54
2021/08/16 05:49:39;;;;;;;19.30;6.07;;;17.00;95.30;;;;;;4978998;28;20038;-48
2021/08/16 05:52:06;;;;;;;24.33;5.80;;;17.00;95.50;;;;;;4957118;28;20046;-48
2021/08/16 05:54:32;;;;;;;21.55;6.22;;;17.00;95.70;;;;;;4973692;28;20408;-47
2021/08/16 05:57:00;;;;;;;19.35;5.30;;;16.90;95.80;;;;;;4974226;28;20514;-51
2021/08/16 05:59:27;;;;;;;22.85;6.38;;;16.90;96.10;;;;;;4971437;28;20043;-48
2021/08/16 06:01:53;;;;;;;21.85;6.88;;;16.90;96.10;;;;;;4971000;28;20045;-47
2021/08/16 06:04:18;;;;;;;19.40;7.07;;;16.80;96.30;;;;;;4972672;28;20047;-48
2021/08/16 06:06:44;;;;;;;16.52;5.47;;;16.80;96.50;;;;;;4968518;28;20070;-52
2021/08/16 06:09:10;;;;;;;11.63;5.45;;;16.70;96.60;;;;;;4972682;28;20054;-52
2021/08/16 06:11:36;;;;;;;9.95;5.03;;;16.70;96.70;;;;;;4968867;28;20038;-54
2021/08/16 06:14:02;;;;;;;10.23;5.15;;;16.70;96.80;;;;;;4949600;28;20053;-50
2021/08/16 06:16:27;;;;;;;16.70;4.80;;;16.70;97.00;;;;;;4956207;28;20062;-50
2021/08/16 06:18:53;;;;;;;11.20;4.22;;;16.70;97.00;;;;;;4972500;28;20508;-48
2021/08/16 06:21:20;;;;;;;10.75;3.75;;;16.70;97.00;;;;;;4972617;28;20050;-51
2021/08/16 06:23:47;;;;;;;8.30;3.08;;;16.70;97.00;;;;;;4946616;28;20043;-48
2021/08/16 06:26:13;;;;;;;8.07;3.72;;;16.70;97.10;;;;;;4975331;28;20092;-48
2021/08/16 06:28:39;;;;;;;8.82;3.40;;;16.70;97.20;;;;;;4974010;28;20397;-54
2021/08/16 06:31:07;;;;;;;6.15;3.30;;;16.70;97.10;;;;;;4961128;28;20141;-52
2021/08/16 06:33:37;;;;;;;6.38;3.40;;;16.70;97.10;;;;;;4942697;28;20047;-52
2021/08/16 06:36:05;;;;;;;7.38;3.58;;;16.80;97.10;;;;;;4976577;28;20043;-51
2021/08/16 06:38:35;;;;;;;7.03;3.42;;;16.80;97.10;;;;;;4953961;28;20039;-50
2021/08/16 06:41:01;;;;;;;10.27;4.50;;;16.90;97.30;;;;;;4956005;28;20057;-53
2021/08/16 06:43:30;;;;;;;8.68;4.78;;;16.90;97.10;;;;;;4942246;28;20047;-51
2021/08/16 06:45:59;;;;;;;9.05;5.20;;;17.00;97.00;;;;;;4977239;28;20038;-51
2021/08/16 06:48:25;;;;;;;8.88;5.30;;;17.00;97.00;;;;;;4958481;28;20260;-53
2021/08/16 06:50:51;;;;;;;10.10;5.50;;;17.00;96.90;;;;;;4978226;28;20050;-51
2021/08/16 06:53:17;;;;;;;11.93;5.63;;;17.00;96.90;;;;;;4970240;28;20043;-49
2021/08/16 06:55:45;;;;;;;13.32;5.47;;;17.00;97.00;;;;;;4974791;28;20645;-49
2021/08/16 06:58:11;;;;;;;14.93;5.57;;;17.00;96.90;;;;;;4955848;28;20078;-57
2021/08/16 07:00:41;;;;;;;12.05;5.70;;;17.00;96.90;;;;;;4970670;28;20043;-49
2021/08/16 07:03:11;;;;;;;12.85;4.88;;;17.00;96.90;;;;;;4973360;28;20523;-49
2021/08/16 07:05:43;;;;;;;11.38;5.22;;;17.00;96.90;;;;;;4975693;28;20408;-49
2021/08/16 07:08:13;;;;;;;9.40;4.55;;;17.00;96.90;;;;;;4974033;28;20085;-48
2021/08/16 07:10:39;;;;;;;10.88;4.68;;;17.00;96.80;;;;;;4968406;28;20435;-49
2021/08/16 07:13:05;;;;;;;6.90;3.95;;;17.00;96.60;;;;;;4973405;28;20094;-53
2021/08/16 07:15:31;;;;;;;11.13;4.38;;;16.90;96.60;;;;;;4974023;28;20043;-53
2021/08/16 07:17:57;;;;;;;6.30;3.88;;;16.90;96.60;;;;;;4972747;28;20154;-50
2021/08/16 07:20:23;;;;;;;8.30;3.70;;;16.90;96.50;;;;;;4973519;28;20078;-53
2021/08/16 07:22:50;;;;;;;7.55;3.75;;;16.90;96.60;;;;;;4938655;28;20038;-54
2021/08/16 07:25:16;;;;;;;6.72;3.90;;;16.90;96.50;;;;;;4975340;28;20480;-48
2021/08/16 07:27:42;;;;;;;6.45;3.63;;;17.00;96.60;;;;;;4954354;28;20047;-52
2021/08/16 07:30:08;;;;;;;7.88;4.07;;;17.00;96.60;;;;;;4973789;28;20042;-48
2021/08/16 07:32:35;;;;;;;9.52;4.00;;;17.10;96.60;;;;;;4971809;28;20043;-53
2021/08/16 07:35:01;;;;;;;8.10;3.58;;;17.10;96.60;;;;;;4962245;28;20054;-53
2021/08/16 07:37:27;;;;;;;7.63;3.30;;;17.10;96.60;;;;;;4931026;28;20072;-53
2021/08/16 07:39:53;;;;;;;8.05;3.40;;;17.20;96.60;;;;;;4961182;28;20043;-53
2021/08/16 07:42:23;;;;;;;6.63;3.30;;;17.10;96.40;;;;;;4954846;28;20039;-53
2021/08/16 07:44:50;;;;;;;10.73;3.70;;;17.20;96.40;;;;;;4962969;28;20150;-52
2021/08/16 07:47:16;;;;;;;11.68;3.50;;;17.20;96.40;;;;;;4969544;28;21443;-52
2021/08/16 07:49:41;;;;;;;11.55;3.10;;;17.20;96.40;;;;;;4970264;28;20551;-52
2021/08/16 07:52:07;;;;;;;7.90;3.13;;;17.20;96.30;;;;;;4973379;28;20400;-49
2021/08/16 07:54:33;;;;;;;8.38;3.20;;;17.20;96.20;;;;;;4965774;28;20114;-51
2021/08/16 07:56:58;;;;;;;8.93;2.95;;;17.20;96.30;;;;;;4969404;28;20046;-47
2021/08/16 07:59:49;;;;;;;9.65;2.70;;;17.20;96.10;;;;;;4961311;28;20784;-51
2021/08/16 08:02:15;;;;;;;9.45;2.55;;;17.30;96.00;;;;;;4961165;28;20043;-50
2021/08/16 08:04:41;;;;;;;5.72;2.63;;;17.30;96.00;;;;;;4974543;28;20038;-50
2021/08/16 08:07:07;;;;;;;8.77;2.58;;;17.30;95.80;;;;;;4977342;28;20089;-49
2021/08/16 08:09:33;;;;;;;8.85;2.90;;;17.30;95.80;;;;;;4941036;28;20142;-50
2021/08/16 08:12:00;;;;;;;5.85;2.72;;;17.40;95.40;;;;;;4974474;28;20070;-53
2021/08/16 08:14:27;;;;;;;6.88;2.83;;;17.40;95.10;;;;;;4959317;28;20525;-50
2021/08/16 08:16:56;;;;;;;10.85;3.10;;;17.40;94.70;;;;;;4973843;28;20043;-51
2021/08/16 08:19:22;;;;;;;5.32;2.63;;;17.30;94.60;;;;;;4954215;28;20046;-50
2021/08/16 08:21:48;;;;;;;7.10;2.83;;;17.30;94.20;;;;;;4957201;28;20043;-50
2021/08/16 08:24:14;;;;;;;8.35;3.05;;;17.30;94.00;;;;;;4973241;28;20046;-51
2021/08/16 08:26:42;;;;;;;6.80;2.67;;;17.30;93.60;;;;;;4922588;28;20039;-52
2021/08/16 08:29:08;;;;;;;7.82;2.83;;;17.20;93.50;;;;;;4948931;28;20051;-50
2021/08/16 08:31:37;;;;;;;5.63;2.78;;;17.10;92.80;;;;;;4970780;28;20039;-50
2021/08/16 08:34:04;;;;;;;6.72;2.72;;;17.00;93.00;;;;;;4937520;28;20035;-53
2021/08/16 08:36:30;;;;;;;6.82;2.85;;;16.90;92.90;;;;;;4974266;28;20187;-53
2021/08/16 08:38:56;;;;;;;7.65;2.97;;;16.90;93.10;;;;;;4968027;28;20078;-53
2021/08/16 08:41:22;;;;;;;9.02;3.00;;;16.80;93.20;;;;;;4969870;28;20118;-52
2021/08/16 08:43:49;;;;;;;7.07;3.00;;;16.80;93.10;;;;;;4956154;28;20194;-52
2021/08/16 08:46:18;;;;;;;7.63;3.22;;;16.70;92.80;;;;;;4972517;28;20050;-49
2021/08/16 08:48:50;;;;;;;7.63;3.13;;;16.70;92.80;;;;;;4957993;28;20054;-55
2021/08/16 08:51:18;;;;;;;12.13;3.28;;;16.70;92.90;;;;;;4968515;28;20042;-49
2021/08/16 08:53:44;;;;;;;8.80;3.05;;;16.70;93.10;;;;;;4952749;28;20046;-53
2021/08/16 08:56:12;;;;;;;10.68;3.45;;;16.70;93.00;;;;;;4969174;28;20046;-49
2021/08/16 08:58:39;;;;;;;9.10;3.33;;;16.70;93.00;;;;;;4953319;28;20057;-48
2021/08/16 09:01:04;;;;;;;9.85;3.75;;;16.60;93.00;;;;;;4974688;28;20043;-51
2021/08/16 09:03:30;;;;;;;11.45;3.35;;;16.70;93.00;;;;;;4970178;28;20039;-52
2021/08/16 09:05:58;;;;;;;9.95;3.50;;;16.70;93.20;;;;;;4973912;28;20039;-51
2021/08/16 09:08:31;;;;;;;7.40;3.65;;;16.80;93.10;;;;;;4970291;28;20122;-51
2021/08/16 09:11:14;;;;;;;13.60;3.55;;;16.80;93.00;;;;;;4977291;28;20035;-58
2021/08/16 09:13:56;;;;;;;11.75;3.53;;;16.80;92.80;;;;;;4966896;28;20094;-49
2021/08/16 09:16:22;;;;;;;10.18;3.30;;;16.80;92.50;;;;;;4972476;28;20043;-49
2021/08/16 09:18:49;;;;;;;10.30;3.72;;;16.90;92.60;;;;;;4969995;28;20141;-49
2021/08/16 09:21:31;;;;;;;9.93;3.25;;;17.00;92.70;;;;;;4966974;28;20077;-50
2021/08/16 09:23:59;;;;;;;9.38;3.60;;;17.10;92.00;;;;;;4935208;28;20054;-56
2021/08/16 09:26:29;;;;;;;8.25;3.10;;;17.10;91.90;;;;;;4956266;28;20046;-56
2021/08/16 09:28:55;;;;;;;8.68;3.17;;;17.20;91.40;;;;;;4972367;28;20113;-49
2021/08/16 09:31:24;;;;;;;7.55;3.20;;;17.20;91.40;;;;;;4966310;28;20053;-52
2021/08/16 09:33:56;;;;;;;10.52;3.47;;;17.30;91.40;;;;;;4968992;28;20142;-48
2021/08/16 09:36:37;;;;;;;7.35;3.15;;;17.40;91.30;;;;;;4971278;28;20074;-52
2021/08/16 09:39:23;;;;;;;10.32;3.97;;;17.50;91.20;;;;;;4969353;28;20101;-50
2021/08/16 09:42:01;;;;;;;9.90;3.35;;;17.50;91.40;;;;;;4971180;28;20054;-49
2021/08/16 09:44:28;;;;;;;11.77;3.58;;;17.50;91.00;;;;;;4951762;28;20050;-51
2021/08/16 09:47:05;;;;;;;10.63;3.30;;;17.50;90.90;;;;;;4970860;28;20554;-51
2021/08/16 09:49:33;;;;;;;9.35;3.47;;;17.50;90.40;;;;;;4968412;28;20034;-48
2021/08/16 09:52:11;;;;;;;11.55;3.85;;;17.40;90.40;;;;;;4941263;28;20051;-49
2021/08/16 09:54:39;;;;;;;10.65;3.60;;;17.40;90.10;;;;;;4965904;28;20070;-51
2021/08/16 09:57:07;;;;;;;10.73;3.60;;;17.40;89.70;;;;;;4961479;28;20043;-50
2021/08/16 09:59:34;;;;;;;9.45;3.05;;;17.30;90.50;;;;;;4973474;28;20050;-50
2021/08/16 10:02:00;;;;;;;12.02;3.17;;;17.10;90.20;;;;;;4965827;28;20460;-53
2021/08/16 10:04:29;;;;;;;8.25;3.45;;;17.00;91.10;;;;;;4976350;28;20066;-54
2021/08/16 10:06:57;;;;;;;10.25;3.65;;;16.90;92.10;;;;;;4972224;28;20508;-52
2021/08/16 10:09:24;;;;;;;8.27;3.22;;;16.90;92.80;;;;;;4974224;28;20053;-53
2021/08/16 10:11:50;;;;;;;9.95;3.00;;;16.90;93.10;;;;;;4973394;28;20030;-52
2021/08/16 10:14:19;;;;;;;8.52;2.50;;;16.90;93.30;;;;;;4976591;28;20097;-53
2021/08/16 10:16:49;;;;;;;5.60;1.80;;;16.90;93.30;;;;;;4965485;28;20039;-51
2021/08/16 10:19:18;;;;;;;2.92;1.30;;;16.90;92.70;;;;;;4973737;28;20039;-54
2021/08/16 10:21:44;;;;;;;2.92;1.15;;;16.90;91.70;;;;;;4958090;28;20292;-50
2021/08/16 10:24:23;;;;;;;4.32;1.30;;;16.80;90.80;;;;;;4950810;28;20458;-52
2021/08/16 10:27:05;;;;;;;2.78;1.48;;;16.70;91.40;;;;;;4967126;28;20583;-51
2021/08/16 10:29:35;;;;;;;5.18;1.60;;;16.60;91.70;;;;;;4966275;28;20048;-50
2021/08/16 10:32:02;;;;;;;4.50;1.40;;;16.60;92.20;;;;;;4964990;28;20133;-54
2021/08/16 10:34:38;;;;;;;3.55;1.42;;;16.60;92.30;;;;;;4966192;28;20046;-49
2021/08/16 10:37:11;;;;;;;3.95;1.42;;;16.60;92.40;;;;;;4970458;28;20039;-55
2021/08/16 10:39:45;;;;;;;5.07;1.60;;;16.70;92.10;;;;;;4970943;28;20058;-53
2021/08/16 10:42:21;;;;;;;5.25;1.48;;;16.70;92.00;;;;;;4971098;28;20053;-52
2021/08/16 10:44:53;;;;;;;5.22;1.50;;;16.70;92.20;;;;;;4941954;28;20510;-51
2021/08/16 10:47:35;;;;;;;5.90;1.60;;;16.80;92.10;;;;;;4971604;28;20035;-50
2021/08/16 10:50:10;;;;;;;6.68;1.70;;;16.80;91.70;;;;;;4970354;28;20058;-49
2021/08/16 10:52:39;;;;;;;7.65;1.80;;;16.90;92.00;;;;;;4973690;28;20035;-51
2021/08/16 10:55:25;;;;;;;5.00;1.77;;;16.90;91.80;;;;;;4973537;28;20102;-51
2021/08/16 10:57:53;;;;;;;7.50;2.35;;;16.90;91.80;;;;;;4960213;28;20079;-51
2021/08/16 11:00:19;;;;;;;5.82;2.30;;;16.80;91.90;;;;;;4977350;28;20495;-49
2021/08/16 11:02:56;;;;;;;7.50;2.45;;;16.60;91.90;;;;;;4973665;28;20607;-49
2021/08/16 11:05:33;;;;;;;5.55;2.05;;;16.40;92.10;;;;;;4973601;28;20511;-51
2021/08/16 11:08:04;;;;;;;7.97;2.55;;;16.20;92.40;;;;;;4972728;28;20070;-49
2021/08/16 11:10:38;;;;;;;7.32;2.50;;;16.10;92.70;;;;;;4974883;28;20411;-53
2021/08/16 11:13:12;;;;;;;9.30;2.40;;;16.00;93.20;;;;;;4973670;28;20121;-54
2021/08/16 11:15:39;;;;;;;7.55;2.42;;;15.90;93.30;;;;;;4954205;28;20043;-49
2021/08/16 11:18:19;;;;;;;12.50;2.90;;;15.90;93.50;;;;;;4973352;28;20046;-51
2021/08/16 11:20:54;;;;;;;15.63;3.35;;;15.80;93.70;;;;;;4970820;28;20047;-50
2021/08/16 11:23:21;;;;;;;11.52;3.30;;;15.80;93.80;;;;;;4965765;28;20035;-52
2021/08/16 11:25:57;;;;;;;12.50;3.63;;;15.80;94.00;;;;;;4956329;28;20062;-51
2021/08/16 11:28:28;;;;;;;10.52;3.25;;;15.90;94.40;;;;;;4961364;28;20144;-54
2021/08/16 11:31:08;;;;;;;12.98;3.30;;;15.90;94.40;;;;;;4959830;28;20057;-52
2021/08/16 11:33:35;;;;;;;12.88;4.40;;;16.00;94.40;;;;;;4968163;28;20072;-53
2021/08/16 11:36:13;;;;;;;9.68;3.85;;;16.00;94.30;;;;;;4954229;28;20046;-50
2021/08/16 11:38:42;;;;;;;11.73;3.60;;;16.00;94.30;;;;;;4969112;28;20046;-50
2021/08/16 11:41:10;;;;;;;15.27;4.03;;;16.00;94.20;;;;;;4970140;28;20050;-50
2021/08/16 11:43:36;;;;;;;14.52;4.15;;;16.10;94.10;;;;;;4971968;28;21516;-49
2021/08/16 11:46:16;;;;;;;13.40;3.50;;;16.20;94.30;;;;;;4972354;28;20475;-53
2021/08/16 11:48:50;;;;;;;8.75;3.58;;;16.30;94.40;;;;;;4954200;28;20050;-53
2021/08/16 11:51:17;;;;;;;14.82;3.75;;;16.40;94.50;;;;;;4970392;28;20590;-55
2021/08/16 11:53:44;;;;;;;14.98;4.05;;;16.60;94.30;;;;;;4945564;28;20047;-55
2021/08/16 11:56:11;;;;;;;15.02;3.60;;;16.70;94.20;;;;;;4971816;28;20066;-53
2021/08/16 11:58:38;;;;;;;10.48;2.90;;;16.90;93.60;;;;;;4968213;28;20039;-55
2021/08/16 12:01:06;;;;;;;11.23;3.20;;;17.10;92.20;;;;;;4968354;28;20039;-53
2021/08/16 12:03:33;;;;;;;10.38;3.38;;;17.20;90.50;;;;;;4950302;28;20047;-55
2021/08/16 12:06:02;;;;;;;7.78;2.58;;;17.20;89.00;;;;;;4950599;28;20043;-54
2021/08/16 12:08:35;;;;;;;7.88;2.80;;;17.20;87.80;;;;;;4944069;28;20913;-55
2021/08/16 12:11:17;;;;;;;11.57;3.22;;;17.10;87.30;;;;;;4969384;28;20110;-49
2021/08/16 12:13:43;;;;;;;7.80;2.97;;;17.10;86.90;;;;;;4951500;28;20043;-53
2021/08/16 12:16:17;;;;;;;10.85;3.15;;;17.10;84.70;;;;;;4969970;28;20046;-55
2021/08/16 12:18:43;;;;;;;13.57;2.95;;;17.00;82.60;;;;;;4964442;28;20098;-54
2021/08/16 12:21:19;;;;;;;13.60;3.38;;;16.90;82.60;;;;;;4963897;28;20910;-51
2021/08/16 12:23:57;;;;;;;9.88;3.22;;;16.80;83.00;;;;;;4967129;28;20050;-52
2021/08/16 12:26:28;;;;;;;15.15;2.90;;;16.80;83.40;;;;;;4965445;28;20513;-51
2021/08/16 12:28:54;;;;;;;15.60;3.33;;;16.80;83.20;;;;;;4967984;28;20475;-49
2021/08/16 12:31:25;;;;;;;10.45;3.40;;;16.70;84.60;;;;;;4935053;28;20082;-57
2021/08/16 12:34:02;;;;;;;16.10;3.72;;;16.80;83.50;;;;;;4947668;28;20041;-53
2021/08/16 12:36:37;;;;;;;10.90;3.70;;;16.80;81.80;;;;;;4966821;28;20651;-51
2021/08/16 12:39:13;;;;;;;13.48;3.40;;;16.80;80.10;;;;;;4932455;29;20047;-52
2021/08/16 12:41:40;;;;;;;16.58;5.43;;;16.80;79.10;;;;;;4961297;28;20121;-52
2021/08/16 12:44:23;;;;;;;13.13;3.70;;;16.90;79.10;;;;;;4972659;28;20042;-54
2021/08/16 12:47:05;;;;;;;11.18;3.20;;;17.00;78.20;;;;;;4966075;28;20047;-48